Time;durP1;ratioP1;P1;durP2;ratioP2;P2;SDS_P1;SDS_P2;PMS_P1;PMS_P2;Temp;Humidity;BMP_temperature;BMP_pressure;BME280_temperature;BME280_humidity;BME280_pressure;Samples;Min_cycle;Max_cycle;Signal;HPM_P1;HPM_P2
2020/12/29 00:00:06;;;;;;;1.55;0.88;;;3.90;99.90;;;;;;6300073;28;20075;-77
2020/12/29 00:03:08;;;;;;;1.75;1.60;;;4.00;99.90;;;;;;6301756;28;20140;-77
2020/12/29 00:06:09;;;;;;;0.95;0.60;;;4.00;99.90;;;;;;6299733;28;20088;-77
2020/12/29 00:09:11;;;;;;;1.50;1.40;;;4.00;99.90;;;;;;6298259;28;20052;-76
2020/12/29 00:12:13;;;;;;;1.92;0.70;;;4.10;99.90;;;;;;6298353;28;20094;-76
2020/12/29 00:15:14;;;;;;;2.15;0.90;;;4.20;99.90;;;;;;6298913;28;20605;-77
2020/12/29 00:18:16;;;;;;;0.60;0.40;;;4.20;99.90;;;;;;6298355;28;20068;-77
2020/12/29 00:21:18;;;;;;;1.05;0.40;;;4.10;99.90;;;;;;6298423;28;20060;-77
2020/12/29 00:24:21;;;;;;;3.15;0.57;;;4.20;99.90;;;;;;6298141;28;20040;-76
2020/12/29 00:27:22;;;;;;;1.17;0.57;;;4.20;99.90;;;;;;6298125;28;20057;-76
2020/12/29 00:30:24;;;;;;;0.40;0.40;;;4.20;99.90;;;;;;6298275;28;20068;-76
2020/12/29 00:33:25;;;;;;;0.68;0.55;;;4.20;99.90;;;;;;6297896;28;20078;-76
2020/12/29 00:36:26;;;;;;;0.68;0.40;;;4.20;99.90;;;;;;6297590;28;20044;-76
2020/12/29 00:39:29;;;;;;;2.50;0.70;;;4.30;99.90;;;;;;6298177;28;20082;-75
2020/12/29 00:42:33;;;;;;;1.10;0.68;;;4.30;99.90;;;;;;6297640;28;20045;-76
2020/12/29 00:45:34;;;;;;;0.30;0.30;;;4.30;99.90;;;;;;6297681;28;20049;-76
2020/12/29 00:48:36;;;;;;;1.02;0.60;;;4.30;99.90;;;;;;6297453;28;20430;-75
2020/12/29 00:51:37;;;;;;;0.70;0.70;;;4.40;99.90;;;;;;6298515;28;20135;-76
2020/12/29 00:54:39;;;;;;;0.40;0.40;;;4.30;99.90;;;;;;6297337;28;20048;-75
2020/12/29 00:57:40;;;;;;;0.70;0.52;;;4.40;99.60;;;;;;6297252;28;20466;-76
2020/12/29 01:00:42;;;;;;;0.88;0.40;;;4.60;99.00;;;;;;6298482;28;20059;-76
2020/12/29 01:03:43;;;;;;;2.15;0.50;;;4.60;98.80;;;;;;6298246;28;20048;-76
2020/12/29 01:06:44;;;;;;;1.02;0.60;;;4.60;98.20;;;;;;6297170;28;20417;-76
2020/12/29 01:09:47;;;;;;;0.70;0.68;;;4.60;98.20;;;;;;6297709;28;20457;-76
2020/12/29 01:12:48;;;;;;;1.05;0.35;;;4.60;98.10;;;;;;6296957;28;20072;-75
2020/12/29 01:15:51;;;;;;;0.95;0.52;;;4.60;97.80;;;;;;6297139;28;20047;-76
2020/12/29 01:18:52;;;;;;;2.55;0.50;;;4.60;97.90;;;;;;6292033;28;20102;-76
2020/12/29 01:21:53;;;;;;;2.28;0.68;;;4.60;97.40;;;;;;6282703;28;20065;-76
2020/12/29 01:24:55;;;;;;;1.90;0.40;;;4.60;97.30;;;;;;6281046;28;20056;-75
2020/12/29 01:27:57;;;;;;;0.20;0.20;;;4.70;96.90;;;;;;6283879;28;20049;-76
2020/12/29 01:30:58;;;;;;;0.55;0.40;;;4.70;96.90;;;;;;6281377;28;20053;-76
2020/12/29 01:34:00;;;;;;;0.20;0.20;;;4.70;96.40;;;;;;6280466;28;20052;-76
2020/12/29 01:37:01;;;;;;;0.43;0.43;;;4.70;96.30;;;;;;6283705;28;20489;-76
2020/12/29 01:40:04;;;;;;;0.88;0.52;;;4.70;96.20;;;;;;6282987;28;20131;-75
2020/12/29 01:43:06;;;;;;;1.90;0.40;;;4.60;96.10;;;;;;6281589;28;20392;-76
2020/12/29 01:46:07;;;;;;;2.65;0.75;;;4.60;96.20;;;;;;6281405;28;20147;-76
2020/12/29 01:49:09;;;;;;;4.82;0.70;;;4.60;96.20;;;;;;6281567;28;20128;-76
2020/12/29 01:52:10;;;;;;;1.80;0.57;;;4.50;96.30;;;;;;6278694;28;20444;-75
2020/12/29 01:55:12;;;;;;;1.92;0.50;;;4.50;96.40;;;;;;6282048;28;20437;-76
2020/12/29 01:58:14;;;;;;;0.40;0.40;;;4.50;96.10;;;;;;6280123;28;20047;-76
2020/12/29 02:01:15;;;;;;;0.60;0.60;;;4.50;96.30;;;;;;6281655;28;20045;-76
2020/12/29 02:04:17;;;;;;;0.30;0.30;;;4.40;95.90;;;;;;6285791;28;20060;-74
2020/12/29 02:07:19;;;;;;;1.42;0.80;;;;;;;;;;6295721;28;20059;-74
2020/12/29 02:10:21;;;;;;;0.68;0.30;;;4.40;95.70;;;;;;6295363;28;20055;-75
2020/12/29 02:13:23;;;;;;;0.35;0.35;;;4.50;95.90;;;;;;6295324;28;20110;-75
2020/12/29 02:16:24;;;;;;;3.50;0.70;;;4.50;95.90;;;;;;6294810;28;20482;-74
2020/12/29 02:19:26;;;;;;;0.45;0.28;;;4.50;95.90;;;;;;6296121;28;20052;-75
2020/12/29 02:22:28;;;;;;;0.98;0.45;;;4.60;95.50;;;;;;6295451;28;20044;-75
2020/12/29 02:25:30;;;;;;;0.52;0.32;;;4.50;95.50;;;;;;6294855;28;20048;-75
2020/12/29 02:28:31;;;;;;;1.02;0.43;;;4.60;95.20;;;;;;6295079;28;20119;-75
2020/12/29 02:31:33;;;;;;;0.55;0.40;;;4.60;95.00;;;;;;6297265;28;20109;-75
2020/12/29 02:34:36;;;;;;;1.48;0.50;;;4.70;95.20;;;;;;6295656;28;20040;-76
2020/12/29 02:37:39;;;;;;;1.73;0.40;;;4.80;95.10;;;;;;6295540;28;20056;-76
2020/12/29 02:40:40;;;;;;;2.72;0.43;;;4.90;94.80;;;;;;6295907;28;20044;-76
2020/12/29 02:43:41;;;;;;;1.38;0.60;;;5.00;94.90;;;;;;6295471;28;20139;-76
2020/12/29 02:46:43;;;;;;;1.45;0.50;;;5.10;94.60;;;;;;6294761;28;20048;-75
2020/12/29 02:49:44;;;;;;;1.42;0.40;;;5.20;94.50;;;;;;6296155;28;20202;-75
2020/12/29 02:52:46;;;;;;;0.73;0.60;;;5.20;94.40;;;;;;6295302;28;20059;-75
2020/12/29 02:55:47;;;;;;;1.25;0.70;;;5.30;94.50;;;;;;6295606;28;20051;-75
2020/12/29 02:58:48;;;;;;;0.40;0.35;;;5.30;94.20;;;;;;6294861;28;20498;-76
2020/12/29 03:01:50;;;;;;;0.47;0.35;;;5.30;94.30;;;;;;6295390;28;20123;-76
2020/12/29 03:04:51;;;;;;;3.78;0.88;;;5.40;94.20;;;;;;6294286;28;20044;-75
2020/12/29 03:07:53;;;;;;;0.40;0.40;;;5.40;94.00;;;;;;6295945;28;20438;-75
2020/12/29 03:10:55;;;;;;;3.90;0.70;;;5.40;94.00;;;;;;6294684;28;20049;-75
2020/12/29 03:13:57;;;;;;;0.60;0.30;;;5.40;93.60;;;;;;6295028;28;20091;-75
2020/12/29 03:16:59;;;;;;;0.43;0.40;;;5.50;93.50;;;;;;6294200;28;20574;-75
2020/12/29 03:20:01;;;;;;;0.75;0.75;;;5.50;93.20;;;;;;6294942;28;20501;-75
2020/12/29 03:23:03;;;;;;;0.35;0.30;;;5.50;93.00;;;;;;6294755;28;20501;-75
2020/12/29 03:26:04;;;;;;;0.93;0.25;;;5.50;93.00;;;;;;6295262;28;20047;-76
2020/12/29 03:29:06;;;;;;;0.57;0.40;;;5.50;93.20;;;;;;6299157;28;20040;-75
2020/12/29 03:32:07;;;;;;;0.20;0.20;;;5.60;93.50;;;;;;6299252;28;20548;-76
2020/12/29 03:35:08;;;;;;;0.30;0.30;;;5.60;93.10;;;;;;6299614;28;20410;-76
2020/12/29 03:38:11;;;;;;;0.20;0.20;;;5.60;92.80;;;;;;6299104;28;20135;-76
2020/12/29 03:41:12;;;;;;;0.20;0.20;;;5.60;93.20;;;;;;6299505;28;20068;-76
2020/12/29 03:44:13;;;;;;;0.40;0.30;;;5.50;93.10;;;;;;6298313;28;20097;-76
2020/12/29 03:47:15;;;;;;;1.08;0.68;;;5.50;93.10;;;;;;6299794;28;20078;-76
2020/12/29 03:50:16;;;;;;;0.28;0.28;;;5.50;93.10;;;;;;6299113;28;20414;-76
2020/12/29 03:53:18;;;;;;;1.13;0.57;;;5.50;92.90;;;;;;6299045;28;20045;-76
2020/12/29 03:56:20;;;;;;;7.88;0.73;;;5.50;92.80;;;;;;6297918;28;20044;-76
2020/12/29 03:59:21;;;;;;;1.95;0.50;;;5.50;92.60;;;;;;6299459;28;20056;-76
2020/12/29 04:02:22;;;;;;;0.30;0.30;;;5.60;92.60;;;;;;6298942;28;20054;-76
2020/12/29 04:05:24;;;;;;;1.42;0.40;;;5.60;92.90;;;;;;6298305;28;20111;-76
2020/12/29 04:08:26;;;;;;;0.85;0.50;;;5.60;93.10;;;;;;6297880;28;21103;-76
2020/12/29 04:11:27;;;;;;;0.52;0.35;;;5.50;93.40;;;;;;6298716;28;20076;-75
2020/12/29 04:14:28;;;;;;;12.82;1.10;;;5.50;93.70;;;;;;6297795;28;20481;-76
2020/12/29 04:17:33;;;;;;;0.80;0.32;;;5.40;94.10;;;;;;6298059;28;20048;-76
2020/12/29 04:20:34;;;;;;;1.17;0.40;;;5.30;94.30;;;;;;6297805;28;20673;-76
2020/12/29 04:23:36;;;;;;;0.73;0.30;;;5.30;94.70;;;;;;6298511;28;20056;-76
2020/12/29 04:26:38;;;;;;;0.57;0.55;;;5.30;94.90;;;;;;6297508;28;20041;-76
2020/12/29 04:29:39;;;;;;;1.85;0.30;;;5.20;95.20;;;;;;6297968;28;20593;-76
2020/12/29 04:32:40;;;;;;;3.03;0.75;;;5.20;95.00;;;;;;6297582;28;20044;-75
2020/12/29 04:35:42;;;;;;;0.40;0.40;;;5.20;95.00;;;;;;6298171;28;20497;-76
2020/12/29 04:38:44;;;;;;;0.45;0.30;;;5.10;95.40;;;;;;6297273;28;20502;-76
2020/12/29 04:41:50;;;;;;;0.35;0.30;;;5.20;96.20;;;;;;6298120;28;20429;-76
2020/12/29 04:44:52;;;;;;;0.45;0.30;;;5.00;95.70;;;;;;6296813;28;20048;-75
2020/12/29 04:47:54;;;;;;;0.20;0.20;;;4.50;94.80;;;;;;6297397;28;20049;-75
2020/12/29 04:51:02;;;;;;;0.30;0.30;;;3.80;94.20;;;;;;6296469;28;20091;-75
2020/12/29 04:54:08;;;;;;;0.43;0.43;;;3.20;95.40;;;;;;6296587;28;20421;-75
2020/12/29 04:57:10;;;;;;;0.20;0.20;;;2.80;96.60;;;;;;6296770;28;20052;-76
2020/12/29 05:00:12;;;;;;;1.60;0.30;;;2.70;97.40;;;;;;6296936;28;20048;-76
2020/12/29 05:03:13;;;;;;;2.70;0.40;;;2.60;97.90;;;;;;6297190;28;20611;-76
2020/12/29 05:06:15;;;;;;;0.90;0.43;;;2.50;98.30;;;;;;6296474;28;20049;-76
2020/12/29 05:09:18;;;;;;;0.20;0.20;;;2.50;98.80;;;;;;6296024;28;20049;-76
2020/12/29 05:12:20;;;;;;;0.10;0.10;;;2.40;99.20;;;;;;6296546;28;20052;-77
2020/12/29 05:15:22;;;;;;;0.40;0.40;;;2.40;99.60;;;;;;6296644;28;20156;-76
2020/12/29 05:18:25;;;;;;;1.40;1.10;;;2.40;99.80;;;;;;6296284;28;20051;-76
2020/12/29 05:21:27;;;;;;;0.30;0.30;;;2.40;99.90;;;;;;6296005;28;20048;-76
2020/12/29 05:24:29;;;;;;;0.30;0.30;;;2.40;99.90;;;;;;6295944;28;20058;-77
2020/12/29 05:27:34;;;;;;;0.73;0.73;;;2.30;99.90;;;;;;6296200;28;20058;-77
2020/12/29 05:30:37;;;;;;;0.20;0.20;;;2.30;99.90;;;;;;6296470;28;20048;-77
2020/12/29 05:33:39;;;;;;;0.37;0.37;;;2.30;99.90;;;;;;6296578;28;20045;-76
2020/12/29 05:36:41;;;;;;;0.10;0.10;;;2.30;99.90;;;;;;6295897;28;20047;-76
2020/12/29 05:39:43;;;;;;;0.40;0.40;;;2.30;99.90;;;;;;6296833;28;20048;-76
2020/12/29 05:42:48;;;;;;;0.20;0.20;;;2.40;99.90;;;;;;6295647;28;20041;-76
2020/12/29 05:45:50;;;;;;;0.40;0.40;;;2.40;99.90;;;;;;6295603;28;20052;-77
2020/12/29 05:48:54;;;;;;;0.87;0.57;;;2.40;99.90;;;;;;6295749;28;20067;-77
2020/12/29 05:51:57;;;;;;;0.60;0.40;;;2.50;99.90;;;;;;6296830;28;20121;-75
2020/12/29 05:55:01;;;;;;;0.47;0.30;;;2.50;99.90;;;;;;6295585;28;20047;-76
2020/12/29 05:58:08;;;;;;;0.80;0.60;;;2.50;99.90;;;;;;6295929;28;20127;-77
2020/12/29 06:01:09;;;;;;;0.50;0.50;;;2.60;99.90;;;;;;6295702;28;20052;-76
2020/12/29 06:04:11;;;;;;;1.27;0.73;;;2.60;99.90;;;;;;6295797;28;20049;-77
2020/12/29 06:07:14;;;;;;;0.40;0.40;;;2.70;99.90;;;;;;6296414;28;20449;-77
2020/12/29 06:10:17;;;;;;;0.50;0.50;;;2.70;99.90;;;;;;6296304;28;20084;-76
2020/12/29 06:13:25;;;;;;;0.50;0.50;;;2.70;99.90;;;;;;6295877;28;20044;-77
2020/12/29 06:16:32;;;;;;;0.57;0.57;;;2.80;99.90;;;;;;6294900;28;20064;-77
2020/12/29 06:19:47;;;;;;;0.73;0.63;;;2.80;99.90;;;;;;6295998;28;20049;-77
2020/12/29 06:22:51;;;;;;;1.00;0.50;;;2.80;99.90;;;;;;6295674;28;20044;-77
2020/12/29 06:25:54;;;;;;;0.97;0.63;;;2.90;99.90;;;;;;6296078;28;20117;-76
2020/12/29 06:28:58;;;;;;;0.50;0.50;;;2.90;99.90;;;;;;6294608;28;20175;-77
2020/12/29 06:32:05;;;;;;;0.30;0.30;;;2.90;99.90;;;;;;6296288;28;20565;-77
2020/12/29 06:35:06;;;;;;;0.50;0.50;;;2.90;99.90;;;;;;6297277;28;20560;-77
2020/12/29 06:38:15;;;;;;;0.40;0.40;;;2.90;99.90;;;;;;6296856;28;20185;-77
2020/12/29 06:41:19;;;;;;;0.70;0.60;;;3.00;99.90;;;;;;6296305;28;20048;-76
2020/12/29 06:44:20;;;;;;;1.73;1.53;;;3.00;99.90;;;;;;6296486;28;20532;-77
2020/12/29 06:47:23;;;;;;;21.37;15.13;;;3.00;99.90;;;;;;6297104;28;20051;-77
2020/12/29 06:50:28;;;;;;;7.10;3.10;;;3.10;99.90;;;;;;6297330;28;20132;-78
2020/12/29 06:53:29;;;;;;;26.67;20.10;;;3.10;99.90;;;;;;6297357;28;20055;-78
2020/12/29 06:56:32;;;;;;;29.77;24.03;;;;;;;;;;6295590;28;20461;-78
2020/12/29 06:59:39;;;;;;;5.77;4.97;;;3.40;99.90;;;;;;6298813;28;20486;-78
2020/12/29 07:02:42;;;;;;;5.90;5.28;;;3.20;99.90;;;;;;6301056;28;20102;-77
2020/12/29 07:05:48;;;;;;;11.20;10.07;;;;;;;;;;6279599;28;20433;-77
2020/12/29 07:08:49;;;;;;;4.87;4.23;;;3.30;99.90;;;;;;6293212;28;20045;-77
2020/12/29 07:12:04;;;;;;;0.87;0.87;;;3.30;99.90;;;;;;6275503;28;20182;-77
2020/12/29 07:15:05;;;;;;;7.60;6.90;;;3.30;99.90;;;;;;6296832;28;20442;-77
2020/12/29 07:18:09;;;;;;;79.93;50.80;;;3.30;99.90;;;;;;6301825;28;20040;-78
2020/12/29 07:21:47;;;;;;;15.70;12.43;;;3.30;99.90;;;;;;6303646;28;20049;-77
2020/12/29 07:24:50;;;;;;;8.97;8.07;;;3.30;99.90;;;;;;6299696;28;20055;-77
2020/12/29 07:27:55;;;;;;;3.03;2.80;;;3.30;99.90;;;;;;6299822;28;20063;-77
2020/12/29 07:30:56;;;;;;;2.03;1.30;;;3.30;99.90;;;;;;6301058;28;20045;-77
2020/12/29 07:34:02;;;;;;;1.10;0.67;;;3.40;99.90;;;;;;6299477;28;20041;-76
2020/12/29 07:37:04;;;;;;;1.00;1.00;;;3.40;99.90;;;;;;6299595;28;20044;-78
2020/12/29 07:40:05;;;;;;;2.47;2.27;;;3.50;99.90;;;;;;6283806;28;20063;-78
2020/12/29 07:43:08;;;;;;;0.40;0.40;;;3.50;99.90;;;;;;6274842;28;20470;-77
2020/12/29 07:46:10;;;;;;;2.43;0.40;;;3.50;99.90;;;;;;6273988;28;20471;-77
2020/12/29 07:49:11;;;;;;;0.40;0.40;;;3.50;99.90;;;;;;6274743;28;20052;-77
2020/12/29 07:52:22;;;;;;;0.53;0.40;;;3.50;99.90;;;;;;6275207;28;20106;-77
2020/12/29 07:55:23;;;;;;;1.53;0.40;;;3.60;99.90;;;;;;6274569;28;20064;-77
2020/12/29 07:58:26;;;;;;;0.80;0.50;;;;;;;;;;6274198;28;20102;-78
2020/12/29 08:01:27;;;;;;;0.40;0.40;;;3.60;99.90;;;;;;6273579;28;20131;-77
2020/12/29 08:04:30;;;;;;;0.60;0.60;;;3.60;99.90;;;;;;6273382;28;20047;-77
2020/12/29 08:07:31;;;;;;;2.10;0.40;;;3.60;99.90;;;;;;6274121;28;20045;-77
2020/12/29 08:10:34;;;;;;;0.53;0.40;;;3.70;99.90;;;;;;6274125;28;20045;-77
2020/12/29 08:13:36;;;;;;;0.43;0.43;;;3.70;99.90;;;;;;6273555;28;20128;-78
2020/12/29 08:16:37;;;;;;;0.30;0.30;;;3.70;99.90;;;;;;6251768;28;20055;-77
2020/12/29 08:19:39;;;;;;;26.13;22.07;;;3.70;99.90;;;;;;6274486;28;20053;-76
2020/12/29 08:22:40;;;;;;;10.87;9.97;;;3.80;99.90;;;;;;6274647;28;20131;-77
2020/12/29 08:25:47;;;;;;;2.20;2.00;;;3.80;99.90;;;;;;6273808;28;20644;-77
2020/12/29 08:28:50;;;;;;;1.27;1.17;;;3.90;99.90;;;;;;6274029;28;20049;-77
2020/12/29 08:32:05;;;;;;;13.67;12.67;;;3.90;99.90;;;;;;6273844;28;20060;-77
2020/12/29 08:35:11;;;;;;;7.93;7.30;;;3.90;99.90;;;;;;6274066;28;20124;-77
2020/12/29 08:38:25;;;;;;;3.43;3.23;;;3.90;99.90;;;;;;6256214;28;20118;-77
2020/12/29 08:41:31;;;;;;;2.20;1.27;;;4.00;99.90;;;;;;6249849;28;20156;-77
2020/12/29 08:44:34;;;;;;;1.10;1.00;;;4.00;99.90;;;;;;6247837;28;20049;-77
2020/12/29 08:47:35;;;;;;;2.53;2.00;;;4.00;99.90;;;;;;6248183;28;20049;-77
2020/12/29 08:50:37;;;;;;;5.20;4.83;;;4.00;99.90;;;;;;6248628;28;20049;-77
2020/12/29 08:53:38;;;;;;;7.70;7.18;;;4.00;99.90;;;;;;6248616;28;20045;-77
2020/12/29 08:56:41;;;;;;;2.03;1.43;;;4.10;99.90;;;;;;6247869;28;20690;-77
2020/12/29 08:59:43;;;;;;;0.80;0.73;;;4.20;99.90;;;;;;6248782;28;20053;-77
2020/12/29 09:02:44;;;;;;;0.90;0.55;;;4.20;99.90;;;;;;6248722;28;20069;-78
2020/12/29 09:05:45;;;;;;;0.90;0.60;;;4.20;99.90;;;;;;6247580;28;20049;-77
2020/12/29 09:08:47;;;;;;;0.98;0.90;;;4.20;99.90;;;;;;6248329;28;20045;-78
2020/12/29 09:11:48;;;;;;;5.47;2.08;;;4.20;99.90;;;;;;6248130;28;20077;-77
2020/12/29 09:14:52;;;;;;;1.92;1.60;;;4.30;99.90;;;;;;6248362;28;20133;-78
2020/12/29 09:17:58;;;;;;;0.75;0.75;;;4.50;99.90;;;;;;6247750;28;20132;-77
2020/12/29 09:21:18;;;;;;;2.80;0.75;;;4.50;99.90;;;;;;6248218;28;20121;-78
2020/12/29 09:24:20;;;;;;;0.70;0.70;;;4.40;99.90;;;;;;6246512;28;20053;-77
2020/12/29 09:27:28;;;;;;;0.60;0.60;;;4.30;99.90;;;;;;6248236;28;20133;-77
2020/12/29 09:30:30;;;;;;;1.23;1.10;;;4.30;99.90;;;;;;6248833;28;20042;-78
2020/12/29 09:33:33;;;;;;;1.27;0.95;;;4.30;99.90;;;;;;6248866;28;20136;-77
2020/12/29 09:36:35;;;;;;;1.05;0.93;;;4.30;99.90;;;;;;6246834;28;20179;-77
2020/12/29 09:39:36;;;;;;;0.88;0.85;;;4.20;99.90;;;;;;6247727;28;20064;-77
2020/12/29 09:42:37;;;;;;;1.23;0.90;;;4.30;99.90;;;;;;6247183;28;20047;-78
2020/12/29 09:45:43;;;;;;;1.33;0.88;;;4.20;99.90;;;;;;6247131;28;20073;-78
2020/12/29 09:48:44;;;;;;;2.03;0.85;;;4.30;99.90;;;;;;6250918;28;20041;-77
2020/12/29 09:51:45;;;;;;;1.17;1.08;;;4.30;99.90;;;;;;6255491;28;20148;-76
2020/12/29 09:54:46;;;;;;;1.52;1.08;;;4.40;99.90;;;;;;6248991;28;20046;-78
2020/12/29 09:57:48;;;;;;;1.45;1.30;;;4.40;99.90;;;;;;6240290;28;20533;-78
2020/12/29 10:00:50;;;;;;;5.47;4.05;;;4.40;99.90;;;;;;6241597;28;20411;-77
2020/12/29 10:03:52;;;;;;;2.13;1.92;;;4.40;99.90;;;;;;6239981;28;20539;-77
2020/12/29 10:06:54;;;;;;;3.75;3.13;;;4.50;99.90;;;;;;6245043;28;20076;-77
2020/12/29 10:09:55;;;;;;;1.90;1.50;;;4.40;99.90;;;;;;6239527;28;20053;-78
2020/12/29 10:12:56;;;;;;;1.95;1.85;;;4.50;99.70;;;;;;6231238;28;20100;-78
2020/12/29 10:15:58;;;;;;;3.08;2.83;;;4.50;99.50;;;;;;6238786;28;20496;-77
2020/12/29 10:19:00;;;;;;;2.25;2.05;;;4.60;99.10;;;;;;6238996;28;20447;-77
2020/12/29 10:22:01;;;;;;;3.60;1.92;;;4.60;98.70;;;;;;6225548;28;20534;-78
2020/12/29 10:25:02;;;;;;;1.48;1.38;;;4.60;98.50;;;;;;6237102;28;20060;-78
2020/12/29 10:28:04;;;;;;;11.20;8.20;;;4.60;99.00;;;;;;6236803;28;20150;-78
2020/12/29 10:31:08;;;;;;;6.47;5.63;;;4.70;98.70;;;;;;6233849;28;20522;-78
2020/12/29 10:34:11;;;;;;;3.92;3.17;;;4.70;98.80;;;;;;6230632;28;20531;-77
2020/12/29 10:37:12;;;;;;;3.10;2.80;;;4.80;98.30;;;;;;6227839;28;20042;-78
2020/12/29 10:40:13;;;;;;;2.15;1.92;;;4.90;98.10;;;;;;6237459;28;20099;-78
2020/12/29 10:43:15;;;;;;;3.08;2.55;;;5.00;98.70;;;;;;6238262;28;20129;-78
2020/12/29 10:46:18;;;;;;;1.13;1.02;;;5.10;98.20;;;;;;6230382;28;20061;-78
2020/12/29 10:49:19;;;;;;;3.63;1.60;;;5.20;97.70;;;;;;6226299;28;20499;-77
2020/12/29 10:52:20;;;;;;;6.82;2.40;;;5.30;97.50;;;;;;6228728;28;20057;-77
2020/12/29 10:55:21;;;;;;;1.50;1.38;;;5.50;98.10;;;;;;6221670;28;20753;-78
2020/12/29 10:58:23;;;;;;;5.43;2.38;;;5.70;97.00;;;;;;6224407;28;20053;-77
2020/12/29 11:01:25;;;;;;;3.63;1.65;;;6.00;97.20;;;;;;6230355;28;20053;-78
2020/12/29 11:04:26;;;;;;;1.73;0.60;;;6.30;97.10;;;;;;6228277;28;20415;-78
2020/12/29 11:07:27;;;;;;;5.78;2.72;;;6.40;96.10;;;;;;6235690;28;20129;-76
2020/12/29 11:10:29;;;;;;;3.17;1.00;;;6.30;92.30;;;;;;6229249;28;20096;-78
2020/12/29 11:13:30;;;;;;;3.67;1.35;;;6.10;91.00;;;;;;6226097;28;20052;-77
2020/12/29 11:16:32;;;;;;;3.25;1.52;;;6.10;92.50;;;;;;6225897;28;20077;-77
2020/12/29 11:19:33;;;;;;;3.55;2.33;;;6.10;92.70;;;;;;6235805;28;20136;-78
2020/12/29 11:22:35;;;;;;;2.00;1.30;;;6.00;92.80;;;;;;6242976;28;20048;-78
2020/12/29 11:25:36;;;;;;;1.33;1.17;;;6.10;93.10;;;;;;6236228;28;20070;-78
2020/12/29 11:28:37;;;;;;;1.80;0.80;;;6.00;92.40;;;;;;6231505;28;20454;-77
2020/12/29 11:31:39;;;;;;;142.02;76.63;;;6.00;91.80;;;;;;6227229;28;20208;-77
2020/12/29 11:34:41;;;;;;;115.22;50.97;;;6.00;92.10;;;;;;6224263;28;20128;-78
2020/12/29 11:37:42;;;;;;;28.63;16.80;;;6.00;91.90;;;;;;6226951;28;20132;-78
2020/12/29 11:40:44;;;;;;;28.48;15.40;;;6.20;90.90;;;;;;6236405;28;20055;-77
2020/12/29 11:43:45;;;;;;;2.33;1.45;;;6.20;90.70;;;;;;6241520;28;20140;-78
2020/12/29 11:46:48;;;;;;;13.15;11.80;;;6.10;90.30;;;;;;6225150;28;20050;-79
2020/12/29 11:49:49;;;;;;;3.95;1.90;;;6.00;90.90;;;;;;6235955;28;20046;-77
2020/12/29 11:52:50;;;;;;;2.30;1.23;;;6.00;90.20;;;;;;6228784;28;20046;-77
2020/12/29 11:55:52;;;;;;;5.22;4.72;;;5.90;90.40;;;;;;6234226;28;20083;-78
2020/12/29 11:58:53;;;;;;;2.03;1.75;;;6.00;90.90;;;;;;6237719;28;20136;-78
2020/12/29 12:01:55;;;;;;;2.10;2.00;;;6.00;91.20;;;;;;6234009;28;20060;-77
2020/12/29 12:04:56;;;;;;;2.55;1.60;;;6.10;91.70;;;;;;6236943;28;20049;-77
2020/12/29 12:07:58;;;;;;;2.45;1.55;;;6.20;91.30;;;;;;6243560;28;20132;-78
2020/12/29 12:10:59;;;;;;;2.28;1.20;;;6.30;91.90;;;;;;6252878;28;20042;-77
2020/12/29 12:14:00;;;;;;;3.25;1.00;;;6.40;91.70;;;;;;6259324;28;20029;-78
2020/12/29 12:17:02;;;;;;;2.72;1.27;;;6.40;91.50;;;;;;6262034;28;20033;-79
2020/12/29 12:20:37;;;;;;;2.70;0.80;;;6.50;91.00;;;;;;6262783;28;20025;-78
2020/12/29 12:23:38;;;;;;;1.38;1.13;;;6.60;90.50;;;;;;6267371;28;20041;-78
2020/12/29 12:26:39;;;;;;;3.58;1.67;;;6.60;90.60;;;;;;6277734;28;20029;-78
2020/12/29 12:29:40;;;;;;;1.77;1.05;;;6.60;90.80;;;;;;6274919;28;20060;-78
2020/12/29 12:32:42;;;;;;;2.20;1.27;;;6.60;90.80;;;;;;6249844;28;20602;-77
2020/12/29 12:35:44;;;;;;;1.33;1.00;;;6.70;91.00;;;;;;6232872;28;20495;-78
2020/12/29 12:38:46;;;;;;;1.00;0.80;;;6.70;90.50;;;;;;6233734;28;20204;-77
2020/12/29 12:41:47;;;;;;;2.22;1.42;;;6.70;90.20;;;;;;6240733;28;20549;-77
2020/12/29 12:44:48;;;;;;;1.45;0.90;;;6.60;90.70;;;;;;6247072;28;20045;-77
2020/12/29 12:47:50;;;;;;;2.88;1.30;;;6.60;89.50;;;;;;6238581;28;20126;-80
2020/12/29 12:50:52;;;;;;;1.25;1.05;;;6.70;89.30;;;;;;6230331;28;20073;-76
2020/12/29 12:53:53;;;;;;;1.67;0.93;;;6.70;90.00;;;;;;6230765;28;20496;-77
2020/12/29 12:56:55;;;;;;;1.50;0.98;;;6.70;90.00;;;;;;6241162;28;20041;-76
2020/12/29 12:59:56;;;;;;;1.15;0.90;;;6.70;90.20;;;;;;6237165;28;20053;-76
2020/12/29 13:02:59;;;;;;;0.90;0.80;;;6.70;89.10;;;;;;6230057;28;20049;-76
2020/12/29 13:06:00;;;;;;;2.15;1.13;;;6.50;89.10;;;;;;6237958;28;20654;-76
2020/12/29 13:09:02;;;;;;;1.35;1.00;;;6.40;89.40;;;;;;6237126;28;20183;-76
2020/12/29 13:12:03;;;;;;;1.98;1.30;;;6.40;90.10;;;;;;6233403;28;20160;-76
2020/12/29 13:15:04;;;;;;;2.60;0.95;;;6.30;90.40;;;;;;6238560;28;20527;-76
2020/12/29 13:18:07;;;;;;;2.65;1.23;;;6.30;90.90;;;;;;6229167;28;20120;-75
2020/12/29 13:21:10;;;;;;;1.58;1.38;;;6.30;90.80;;;;;;6229694;28;20049;-76
2020/12/29 13:24:11;;;;;;;1.15;0.70;;;6.30;91.00;;;;;;6233686;28;20049;-76
2020/12/29 13:27:12;;;;;;;0.80;0.80;;;6.30;90.50;;;;;;6231042;28;20041;-76
2020/12/29 13:30:13;;;;;;;2.15;1.35;;;6.30;91.10;;;;;;6253773;28;20057;-75
2020/12/29 13:33:16;;;;;;;1.00;0.90;;;6.20;91.40;;;;;;6246426;28;20065;-75
2020/12/29 13:36:17;;;;;;;1.25;1.05;;;6.30;91.50;;;;;;6224094;28;20049;-76
2020/12/29 13:39:18;;;;;;;2.13;1.63;;;6.30;91.30;;;;;;6227168;28;20088;-77
2020/12/29 13:42:20;;;;;;;1.52;1.30;;;6.30;91.20;;;;;;6231253;28;20395;-78
2020/12/29 13:45:21;;;;;;;0.90;0.77;;;6.30;91.30;;;;;;6234157;28;20352;-75
2020/12/29 13:48:25;;;;;;;4.07;1.48;;;6.40;91.70;;;;;;6223187;28;20133;-77
2020/12/29 13:51:26;;;;;;;1.92;1.40;;;6.40;91.60;;;;;;6223803;28;20515;-76
2020/12/29 13:54:27;;;;;;;1.50;1.30;;;6.40;91.30;;;;;;6239838;28;20506;-77
2020/12/29 13:57:28;;;;;;;1.20;1.00;;;6.40;91.70;;;;;;6243838;28;20046;-77
2020/12/29 14:00:30;;;;;;;2.38;0.90;;;6.30;91.70;;;;;;6220142;28;20042;-76
2020/12/29 14:03:32;;;;;;;1.70;1.25;;;6.30;91.90;;;;;;6227060;28;20230;-77
2020/12/29 14:06:33;;;;;;;1.38;1.08;;;6.30;91.40;;;;;;6229481;28;20033;-78
2020/12/29 14:09:36;;;;;;;1.50;0.93;;;6.30;91.60;;;;;;6236819;28;20041;-77
2020/12/29 14:12:37;;;;;;;1.45;1.10;;;6.30;91.70;;;;;;6223379;28;20081;-77
2020/12/29 14:15:38;;;;;;;1.17;1.05;;;6.30;91.90;;;;;;6241276;28;20049;-76
2020/12/29 14:18:40;;;;;;;2.08;1.08;;;6.30;92.10;;;;;;6238680;28;20558;-77
2020/12/29 14:21:45;;;;;;;1.65;0.90;;;6.40;92.10;;;;;;6233557;28;20048;-78
2020/12/29 14:24:46;;;;;;;2.47;1.52;;;6.40;92.00;;;;;;6230163;28;20064;-78
2020/12/29 14:27:49;;;;;;;1.63;1.10;;;6.40;92.10;;;;;;6236913;28;20046;-77
2020/12/29 14:30:50;;;;;;;1.23;0.95;;;6.30;92.10;;;;;;6233576;28;20062;-78
2020/12/29 14:33:54;;;;;;;3.35;1.00;;;6.30;92.30;;;;;;6222148;28;20108;-77
2020/12/29 14:36:58;;;;;;;1.88;1.67;;;6.30;92.30;;;;;;6235484;28;20053;-78
2020/12/29 14:39:59;;;;;;;2.05;1.83;;;6.20;92.70;;;;;;6230439;28;20137;-79
2020/12/29 14:43:00;;;;;;;2.45;1.45;;;6.10;93.50;;;;;;6226690;28;20066;-78
2020/12/29 14:46:03;;;;;;;1.60;1.50;;;6.00;94.20;;;;;;6228180;28;20049;-78
2020/12/29 14:49:05;;;;;;;2.50;1.23;;;5.80;94.90;;;;;;6246542;28;20050;-79
2020/12/29 14:52:07;;;;;;;2.63;2.40;;;5.80;95.50;;;;;;6249772;28;20049;-78
2020/12/29 14:55:08;;;;;;;2.90;2.72;;;5.80;95.90;;;;;;6241061;28;20164;-78
2020/12/29 14:58:09;;;;;;;3.05;2.75;;;5.70;96.50;;;;;;6230799;28;20041;-78
2020/12/29 15:01:11;;;;;;;4.35;2.97;;;5.70;96.90;;;;;;6225655;28;20046;-78
2020/12/29 15:04:13;;;;;;;3.78;2.10;;;5.70;97.20;;;;;;6232589;28;20053;-77
2020/12/29 15:07:14;;;;;;;7.25;3.65;;;5.70;97.40;;;;;;6228754;28;20050;-78
2020/12/29 15:10:15;;;;;;;2.22;1.88;;;5.90;99.50;;;;;;6230653;28;20048;-79
2020/12/29 15:13:18;;;;;;;3.60;2.00;;;6.30;99.30;;;;;;6231017;28;20050;-78
2020/12/29 15:16:20;;;;;;;2.28;1.90;;;6.10;98.70;;;;;;6234428;28;20072;-80
2020/12/29 15:19:22;;;;;;;3.65;3.10;;;5.80;98.90;;;;;;6232960;28;20388;-78
2020/12/29 15:22:23;;;;;;;2.60;2.40;;;5.60;98.90;;;;;;6237656;28;20048;-78
2020/12/29 15:25:24;;;;;;;6.97;2.95;;;5.50;99.00;;;;;;6252821;28;20775;-79
2020/12/29 15:28:26;;;;;;;2.90;2.60;;;5.40;99.00;;;;;;6245293;28;20130;-79
2020/12/29 15:31:27;;;;;;;5.30;2.38;;;5.30;99.20;;;;;;6239006;28;20141;-79
2020/12/29 15:34:29;;;;;;;2.55;2.17;;;5.30;99.50;;;;;;6237910;28;20065;-79
2020/12/29 15:37:31;;;;;;;3.50;3.10;;;5.20;99.70;;;;;;6231935;28;20026;-79
2020/12/29 15:40:32;;;;;;;5.60;2.10;;;5.10;99.80;;;;;;6236512;28;20133;-79
2020/12/29 15:43:34;;;;;;;2.28;1.88;;;5.10;99.90;;;;;;6230939;28;20053;-78
2020/12/29 15:46:35;;;;;;;4.22;2.03;;;5.10;99.90;;;;;;6234718;28;20038;-77
2020/12/29 15:49:37;;;;;;;1.90;1.75;;;5.00;99.90;;;;;;6228694;28;20046;-79
2020/12/29 15:52:39;;;;;;;4.70;2.80;;;5.00;99.90;;;;;;6232611;28;20076;-79
2020/12/29 15:55:40;;;;;;;3.22;2.00;;;4.90;99.90;;;;;;6235980;28;20378;-79
2020/12/29 15:58:41;;;;;;;2.67;2.08;;;4.80;99.90;;;;;;6241964;28;20130;-79
2020/12/29 16:01:44;;;;;;;2.78;2.10;;;4.80;99.90;;;;;;6229318;28;20101;-77